createdAt,value
2023-12-11T00:02:17.297Z,19.20
2023-12-11T00:04:45.824Z,19.70
2023-12-11T00:07:14.152Z,20.50
2023-12-11T00:09:43.695Z,20.00
2023-12-11T00:12:11.838Z,20.50
2023-12-11T00:14:40.334Z,20.10
2023-12-11T00:17:08.496Z,21.20
2023-12-11T00:19:36.665Z,21.30
2023-12-11T00:22:05.152Z,21.50
2023-12-11T00:24:33.821Z,21.90
2023-12-11T00:27:02.042Z,20.90
2023-12-11T00:29:30.182Z,21.60
2023-12-11T00:32:00.891Z,20.80
2023-12-11T00:34:29.350Z,20.50
2023-12-11T00:36:57.652Z,21.00
2023-12-11T00:39:26.437Z,21.70
2023-12-11T00:41:54.891Z,21.80
2023-12-11T00:44:22.937Z,21.70
2023-12-11T00:46:51.214Z,22.80
2023-12-11T00:49:19.513Z,21.30
2023-12-11T00:51:54.183Z,21.10
2023-12-11T00:54:22.458Z,20.80
2023-12-11T00:56:50.788Z,23.10
2023-12-11T00:59:19.020Z,22.30
2023-12-11T01:01:47.170Z,22.10
2023-12-11T01:04:15.639Z,22.10
2023-12-11T01:06:43.908Z,22.30
2023-12-11T01:09:14.206Z,23.10
2023-12-11T01:11:42.371Z,23.70
2023-12-11T01:14:10.672Z,23.10
2023-12-11T01:16:38.839Z,22.80
2023-12-11T01:19:08.574Z,20.60
2023-12-11T01:21:36.912Z,21.60
2023-12-11T01:24:05.447Z,22.00
2023-12-11T01:26:33.657Z,22.10
2023-12-11T01:29:01.829Z,22.70
2023-12-11T01:31:30.942Z,20.80
2023-12-11T01:33:59.059Z,21.30
2023-12-11T01:36:27.562Z,21.70
2023-12-11T01:38:55.644Z,21.50
2023-12-11T01:41:23.815Z,21.80
2023-12-11T01:43:55.703Z,21.00
2023-12-11T01:46:25.907Z,20.90
2023-12-11T01:48:55.095Z,20.70
2023-12-11T01:51:24.331Z,22.10
2023-12-11T01:53:53.233Z,20.40
2023-12-11T01:56:22.378Z,20.90
2023-12-11T01:58:51.925Z,20.20
2023-12-11T02:01:25.870Z,19.90
2023-12-11T02:03:54.325Z,20.00
2023-12-11T02:06:22.890Z,19.00
2023-12-11T02:08:54.970Z,19.10
2023-12-11T02:11:23.241Z,20.60
2023-12-11T02:13:51.463Z,19.60
2023-12-11T02:16:22.722Z,19.50
2023-12-11T02:18:52.192Z,18.80
2023-12-11T02:21:20.669Z,20.40
2023-12-11T02:23:55.384Z,19.60
2023-12-11T02:26:23.753Z,20.30
2023-12-11T02:28:52.383Z,20.40
2023-12-11T02:31:20.716Z,21.50
2023-12-11T02:33:49.109Z,20.40
2023-12-11T02:36:17.430Z,20.50
2023-12-11T02:38:45.802Z,19.90
2023-12-11T02:41:14.157Z,20.20
2023-12-11T02:43:42.983Z,20.30
2023-12-11T02:46:11.438Z,20.30
2023-12-11T02:48:41.164Z,20.60
2023-12-11T02:51:09.649Z,21.90
2023-12-11T02:53:37.924Z,20.40
2023-12-11T02:56:06.408Z,20.90
2023-12-11T02:58:34.640Z,22.40
2023-12-11T03:01:02.975Z,21.00
2023-12-11T03:03:31.997Z,20.90
2023-12-11T03:06:01.824Z,22.00
2023-12-11T03:08:30.214Z,21.10
2023-12-11T03:10:59.100Z,22.40
2023-12-11T03:13:27.272Z,21.10
2023-12-11T03:15:55.980Z,21.00
2023-12-11T03:18:24.259Z,21.70
2023-12-11T03:20:52.486Z,21.60
2023-12-11T03:23:20.625Z,20.90
2023-12-11T03:25:48.887Z,21.30
2023-12-11T03:28:17.115Z,20.00
2023-12-11T03:30:45.924Z,20.80
2023-12-11T03:33:14.634Z,21.30
2023-12-11T03:35:42.982Z,19.80
2023-12-11T03:38:11.125Z,21.20
2023-12-11T03:40:39.356Z,21.90
2023-12-11T03:43:07.715Z,21.20
2023-12-11T03:45:36.957Z,20.10
2023-12-11T03:48:06.121Z,20.50
2023-12-11T03:50:34.269Z,20.60
2023-12-11T03:53:02.403Z,19.50
2023-12-11T03:55:30.628Z,20.10
2023-12-11T03:57:59.248Z,19.90
2023-12-11T04:00:27.529Z,19.40
2023-12-11T04:02:55.693Z,18.80
2023-12-11T04:05:25.346Z,18.80
2023-12-11T04:07:54.705Z,21.10
2023-12-11T04:10:23.837Z,19.80
2023-12-11T04:12:52.545Z,19.40
2023-12-11T04:15:20.641Z,21.00
2023-12-11T04:17:49.523Z,20.40
2023-12-11T04:20:17.819Z,21.40
2023-12-11T04:22:45.948Z,19.50
2023-12-11T04:25:14.296Z,21.50
2023-12-11T04:27:42.526Z,21.00
2023-12-11T04:30:11.178Z,21.20
2023-12-11T04:32:39.898Z,20.90
2023-12-11T04:35:08.492Z,20.90
2023-12-11T04:37:37.731Z,21.40
2023-12-11T04:40:06.748Z,21.60
2023-12-11T04:42:36.360Z,23.40
2023-12-11T04:45:07.275Z,21.10
2023-12-11T04:47:37.611Z,21.20
2023-12-11T04:50:06.475Z,22.00
2023-12-11T04:52:34.791Z,21.00
2023-12-11T04:55:02.993Z,21.60
2023-12-11T04:57:34.286Z,20.80
2023-12-11T05:00:02.605Z,21.80
2023-12-11T05:02:30.810Z,20.50
2023-12-11T05:05:00.391Z,21.30
2023-12-11T05:07:28.999Z,21.70
2023-12-11T05:09:57.409Z,21.90
2023-12-11T05:12:25.489Z,22.90
2023-12-11T05:14:54.052Z,22.30
2023-12-11T05:17:23.463Z,21.60
2023-12-11T05:19:54.454Z,21.30
2023-12-11T05:22:23.058Z,23.10
2023-12-11T05:24:53.557Z,22.20
2023-12-11T05:27:22.615Z,22.70
2023-12-11T05:29:50.786Z,22.20
2023-12-11T05:32:18.973Z,21.90
2023-12-11T05:34:47.503Z,23.60
2023-12-11T05:37:15.750Z,47.00
2023-12-11T05:39:53.973Z,26.70
2023-12-11T05:42:26.314Z,40.20
2023-12-11T05:44:57.175Z,24.80
2023-12-11T05:47:25.680Z,26.00
2023-12-11T05:49:54.695Z,24.10
2023-12-11T05:52:23.095Z,26.10
2023-12-11T05:54:51.620Z,25.80
2023-12-11T05:57:20.013Z,25.30
2023-12-11T05:59:48.713Z,24.40
2023-12-11T06:02:17.013Z,25.00
2023-12-11T06:04:45.269Z,24.90
2023-12-11T06:07:13.674Z,24.00
2023-12-11T06:09:42.792Z,24.30
2023-12-11T06:12:11.756Z,25.00
2023-12-11T06:14:49.844Z,24.20
2023-12-11T06:17:18.752Z,24.30
2023-12-11T06:19:49.803Z,25.20
2023-12-11T06:22:18.006Z,25.10
2023-12-11T06:24:47.285Z,24.10
2023-12-11T06:27:15.824Z,29.20
2023-12-11T06:29:44.679Z,26.70
2023-12-11T06:32:13.227Z,25.50
2023-12-11T06:34:42.939Z,24.80
2023-12-11T06:37:11.446Z,25.80
2023-12-11T06:39:39.943Z,24.50
2023-12-11T06:42:09.416Z,23.60
2023-12-11T06:44:37.707Z,22.60
2023-12-11T06:47:06.057Z,22.90
2023-12-11T06:49:35.523Z,23.40
2023-12-11T06:52:07.481Z,22.90
2023-12-11T06:54:36.324Z,21.50
2023-12-11T06:57:05.005Z,22.80
2023-12-11T06:59:38.287Z,23.10
2023-12-11T07:02:07.773Z,23.20
2023-12-11T07:04:36.863Z,26.80
2023-12-11T07:07:05.797Z,22.90
2023-12-11T07:09:34.494Z,27.10
2023-12-11T07:12:03.007Z,23.60
2023-12-11T07:14:33.408Z,23.80
2023-12-11T07:17:01.932Z,33.20
2023-12-11T07:19:30.884Z,30.60
2023-12-11T07:21:59.882Z,24.30
2023-12-11T07:24:28.564Z,23.10
2023-12-11T07:26:56.817Z,23.60
2023-12-11T07:29:25.158Z,23.40
2023-12-11T07:31:54.223Z,24.90
2023-12-11T07:34:24.336Z,24.10
2023-12-11T07:36:54.770Z,24.30
2023-12-11T07:39:23.846Z,24.70
2023-12-11T07:41:53.174Z,25.40
2023-12-11T07:44:22.926Z,25.00
2023-12-11T07:46:51.926Z,25.10
2023-12-11T07:49:20.604Z,23.90
2023-12-11T07:51:56.351Z,24.90
2023-12-11T07:54:25.454Z,24.60
2023-12-11T07:56:54.080Z,30.30
2023-12-11T07:59:35.542Z,25.00
2023-12-11T08:02:18.846Z,23.40
2023-12-11T08:04:56.339Z,24.30
2023-12-11T08:07:26.802Z,22.90
2023-12-11T08:09:55.557Z,25.20
2023-12-11T08:12:24.031Z,24.50
2023-12-11T08:14:52.690Z,24.30
2023-12-11T08:17:26.731Z,25.70
2023-12-11T08:19:56.088Z,25.10
2023-12-11T08:22:28.644Z,24.00
2023-12-11T08:24:58.306Z,25.20
2023-12-11T08:27:29.769Z,24.90
2023-12-11T08:30:01.539Z,25.00
2023-12-11T08:32:31.374Z,24.80
2023-12-11T08:35:05.530Z,25.60
2023-12-11T08:40:07.540Z,24.70
2023-12-11T08:42:45.593Z,26.40
2023-12-11T08:45:15.850Z,23.90
2023-12-11T08:47:45.188Z,23.60
2023-12-11T08:50:14.158Z,24.00
2023-12-11T08:52:44.891Z,27.60
2023-12-11T08:55:13.771Z,24.60
2023-12-11T08:57:46.283Z,24.00
2023-12-11T09:00:15.485Z,25.90
2023-12-11T09:02:44.144Z,26.20
2023-12-11T09:05:14.710Z,26.00
2023-12-11T09:07:47.579Z,23.90
2023-12-11T09:10:16.446Z,23.70
2023-12-11T09:12:47.041Z,23.70
2023-12-11T09:15:15.634Z,24.20
2023-12-11T09:17:45.848Z,22.70
2023-12-11T09:20:17.773Z,24.90
2023-12-11T09:22:58.800Z,23.00
2023-12-11T09:25:35.349Z,24.00
2023-12-11T09:28:11.015Z,22.30
2023-12-11T09:30:42.196Z,20.70
2023-12-11T09:33:17.534Z,22.60
2023-12-11T09:36:05.717Z,22.90
2023-12-11T09:39:15.324Z,32.60
2023-12-11T09:41:53.733Z,22.40
2023-12-11T09:44:27.328Z,21.90
2023-12-11T09:47:35.572Z,23.00
2023-12-11T09:50:17.739Z,24.10
2023-12-11T09:53:07.826Z,23.60
2023-12-11T09:56:02.065Z,27.20
2023-12-11T09:58:37.032Z,22.20
2023-12-11T10:01:09.525Z,21.70
2023-12-11T10:03:38.474Z,25.10
2023-12-11T10:06:10.917Z,23.30
2023-12-11T10:08:54.106Z,21.80
2023-12-11T10:11:26.275Z,22.00
2023-12-11T10:13:55.603Z,22.20
2023-12-11T10:16:30.025Z,21.00
2023-12-11T10:19:03.353Z,22.50
2023-12-11T10:21:41.290Z,21.70
2023-12-11T10:24:20.404Z,23.80
2023-12-11T10:26:57.544Z,23.90
2023-12-11T10:29:32.074Z,22.90
2023-12-11T10:32:05.664Z,23.70
2023-12-11T10:34:41.989Z,23.80
2023-12-11T10:37:15.464Z,25.80
2023-12-11T10:39:54.683Z,24.10
2023-12-11T10:42:24.419Z,24.50
2023-12-11T10:44:57.064Z,23.60
2023-12-11T10:50:20.136Z,21.90
2023-12-11T10:52:50.697Z,24.60
2023-12-11T10:55:22.163Z,37.30
2023-12-11T10:57:53.149Z,24.10
2023-12-11T11:00:25.263Z,19.70
2023-12-11T11:02:58.925Z,19.80
2023-12-11T11:05:30.400Z,17.70
2023-12-11T11:08:02.119Z,16.90
2023-12-11T11:10:43.331Z,17.30
2023-12-11T11:13:22.644Z,21.50
2023-12-11T11:15:57.344Z,21.10
2023-12-11T11:18:26.058Z,23.10
2023-12-11T11:21:15.062Z,22.60
2023-12-11T11:23:47.276Z,20.40
2023-12-11T11:26:36.929Z,20.90
2023-12-11T11:29:08.379Z,21.40
2023-12-11T11:31:58.632Z,23.10
2023-12-11T11:34:47.519Z,21.30
2023-12-11T11:37:22.317Z,22.20
2023-12-11T11:40:07.289Z,20.50
2023-12-11T11:42:37.222Z,18.90
2023-12-11T11:45:28.105Z,19.60
2023-12-11T11:47:56.512Z,18.90
2023-12-11T11:50:27.349Z,18.00
2023-12-11T11:53:03.808Z,18.70
2023-12-11T11:55:36.372Z,17.10
2023-12-11T11:58:21.589Z,20.50
2023-12-11T12:01:05.105Z,15.60
2023-12-11T12:03:51.123Z,16.70
2023-12-11T12:06:22.627Z,16.10
2023-12-11T12:08:53.908Z,17.10
2023-12-11T12:11:25.263Z,21.30
2023-12-11T12:13:55.291Z,18.30
2023-12-11T12:16:30.387Z,20.20
2023-12-11T12:19:00.006Z,19.30
2023-12-11T12:21:28.997Z,20.90
2023-12-11T12:24:05.144Z,18.90
2023-12-11T12:26:37.021Z,19.90
2023-12-11T12:29:11.137Z,19.60
2023-12-11T12:31:43.124Z,21.30
2023-12-11T12:34:17.895Z,21.00
2023-12-11T12:36:54.645Z,22.20
2023-12-11T12:39:37.503Z,21.00
2023-12-11T12:42:15.581Z,23.40
2023-12-11T12:44:44.186Z,23.70
2023-12-11T12:47:13.641Z,19.80
2023-12-11T12:49:47.112Z,21.10
2023-12-11T12:52:27.015Z,22.20
2023-12-11T12:54:57.512Z,21.00
2023-12-11T12:57:25.731Z,20.00
2023-12-11T13:00:03.969Z,20.60
2023-12-11T13:02:34.877Z,20.60
2023-12-11T13:05:07.031Z,21.00
2023-12-11T13:07:36.014Z,20.60
2023-12-11T13:10:12.471Z,22.20
2023-12-11T13:12:42.828Z,21.20
2023-12-11T13:15:11.894Z,20.70
2023-12-11T13:17:45.216Z,21.90
2023-12-11T13:20:16.118Z,21.60
2023-12-11T13:22:45.609Z,20.40
2023-12-11T13:25:24.228Z,21.50
2023-12-11T13:27:52.414Z,20.90
2023-12-11T13:30:26.822Z,21.40
2023-12-11T13:32:55.477Z,20.40
2023-12-11T13:35:47.442Z,19.60
2023-12-11T13:38:16.901Z,19.40
2023-12-11T13:40:47.335Z,21.60
2023-12-11T13:43:17.929Z,20.10
2023-12-11T13:46:08.759Z,19.80
2023-12-11T13:48:49.647Z,19.60
2023-12-11T13:51:18.874Z,21.80
2023-12-11T13:54:01.302Z,20.80
2023-12-11T13:56:36.029Z,18.70
2023-12-11T13:59:18.284Z,26.40
2023-12-11T14:01:59.193Z,19.60
2023-12-11T14:04:48.132Z,19.80
2023-12-11T14:07:23.860Z,20.20
2023-12-11T14:10:11.270Z,18.90
2023-12-11T14:13:00.846Z,19.10
2023-12-11T14:15:54.518Z,18.70
2023-12-11T14:18:28.149Z,21.50
2023-12-11T14:21:21.861Z,18.00
2023-12-11T14:23:56.659Z,18.70
2023-12-11T14:26:29.384Z,18.40
2023-12-11T14:29:13.577Z,17.90
2023-12-11T14:31:55.072Z,17.60
2023-12-11T14:34:32.992Z,19.70
2023-12-11T14:37:02.612Z,23.70
2023-12-11T14:39:43.490Z,19.50
2023-12-11T14:42:20.918Z,19.90
2023-12-11T14:44:55.616Z,18.50
2023-12-11T14:47:35.289Z,20.00
2023-12-11T14:50:18.944Z,18.60
2023-12-11T14:52:47.580Z,19.80
2023-12-11T14:55:25.035Z,19.90
2023-12-11T14:57:55.017Z,19.60
2023-12-11T15:00:27.011Z,21.70
2023-12-11T15:02:55.605Z,26.10
2023-12-11T15:05:27.930Z,20.40
2023-12-11T15:07:58.215Z,20.00
2023-12-11T15:10:27.364Z,20.00
2023-12-11T15:13:02.399Z,20.40
2023-12-11T15:15:32.279Z,19.40
2023-12-11T15:18:01.646Z,19.90
2023-12-11T15:20:32.495Z,19.70
2023-12-11T15:23:06.962Z,21.00
2023-12-11T15:25:36.319Z,20.60
2023-12-11T15:28:09.550Z,19.90
2023-12-11T15:30:39.018Z,19.90
2023-12-11T15:33:12.725Z,19.30
2023-12-11T15:35:41.455Z,20.00
2023-12-11T15:38:10.806Z,21.20
2023-12-11T15:40:40.086Z,21.90
2023-12-11T15:43:08.961Z,22.20
2023-12-11T15:45:37.410Z,21.60
2023-12-11T15:48:08.752Z,23.20
2023-12-11T15:50:52.066Z,24.30
2023-12-11T15:53:24.766Z,24.40
2023-12-11T15:55:53.201Z,25.10
2023-12-11T15:58:22.403Z,26.10
2023-12-11T16:00:54.256Z,26.90
2023-12-11T16:03:23.341Z,25.80
2023-12-11T16:05:54.027Z,25.30
2023-12-11T16:08:22.570Z,24.50
2023-12-11T16:10:51.284Z,24.50
2023-12-11T16:13:22.888Z,24.90
2023-12-11T16:15:51.957Z,24.80
2023-12-11T16:18:20.407Z,29.30
2023-12-11T16:20:52.102Z,30.60
2023-12-11T16:23:21.163Z,29.30
2023-12-11T16:25:56.518Z,27.90
2023-12-11T16:28:31.653Z,27.90
2023-12-11T16:31:00.698Z,28.50
2023-12-11T16:33:31.028Z,27.50
2023-12-11T16:35:59.783Z,28.40
2023-12-11T16:38:33.733Z,24.30
2023-12-11T16:41:02.135Z,24.40
2023-12-11T16:43:32.961Z,25.30
2023-12-11T16:46:02.120Z,23.60
2023-12-11T16:48:31.122Z,24.50
2023-12-11T16:50:59.952Z,24.30
2023-12-11T16:53:28.551Z,23.70
2023-12-11T16:55:58.842Z,22.80
2023-12-11T16:58:27.424Z,21.70
2023-12-11T17:00:55.593Z,22.40
2023-12-11T17:03:23.866Z,21.80
2023-12-11T17:05:53.553Z,22.80
2023-12-11T17:08:22.351Z,22.70
2023-12-11T17:10:50.589Z,22.60
2023-12-11T17:13:20.399Z,24.30
2023-12-11T17:15:51.180Z,23.20
2023-12-11T17:18:21.446Z,25.80
2023-12-11T17:20:49.923Z,26.10
2023-12-11T17:23:18.923Z,22.90
2023-12-11T17:25:47.324Z,22.00
2023-12-11T17:28:17.024Z,21.90
2023-12-11T17:30:47.542Z,21.90
2023-12-11T17:33:15.699Z,22.50
2023-12-11T17:35:43.863Z,22.40
2023-12-11T17:38:14.421Z,22.80
2023-12-11T17:40:43.841Z,22.70
2023-12-11T17:43:12.915Z,22.40
2023-12-11T17:45:44.953Z,22.70
2023-12-11T17:48:13.777Z,23.20
2023-12-11T17:50:42.218Z,23.40
2023-12-11T17:53:12.902Z,22.40
2023-12-11T17:55:44.402Z,22.90
2023-12-11T17:58:13.956Z,22.10
2023-12-11T18:00:42.341Z,23.50
2023-12-11T18:03:10.755Z,25.10
2023-12-11T18:05:40.206Z,25.60
2023-12-11T18:08:12.595Z,24.00
2023-12-11T18:10:40.924Z,23.70
2023-12-11T18:13:11.359Z,23.30
2023-12-11T18:15:39.561Z,25.10
2023-12-11T18:18:08.613Z,24.40
2023-12-11T18:20:36.742Z,25.30
2023-12-11T18:23:08.871Z,24.00
2023-12-11T18:25:37.178Z,23.20
2023-12-11T18:28:05.409Z,23.80
2023-12-11T18:30:33.723Z,25.20
2023-12-11T18:33:01.952Z,23.10
2023-12-11T18:35:30.212Z,23.60
2023-12-11T18:37:59.117Z,23.60
2023-12-11T18:40:29.574Z,23.70
2023-12-11T18:43:00.405Z,25.00
2023-12-11T18:45:28.836Z,23.10
2023-12-11T18:47:58.962Z,24.20
2023-12-11T18:50:27.251Z,23.80
2023-12-11T18:52:57.760Z,26.80
2023-12-11T18:55:31.064Z,23.80
2023-12-11T18:57:59.684Z,23.70
2023-12-11T19:00:28.893Z,22.40
2023-12-11T19:02:57.660Z,22.80
2023-12-11T19:05:26.598Z,21.90
2023-12-11T19:07:56.954Z,23.40
2023-12-11T19:10:26.474Z,23.40
2023-12-11T19:12:57.282Z,22.10
2023-12-11T19:15:26.275Z,23.10
2023-12-11T19:17:57.531Z,22.70
2023-12-11T19:20:25.836Z,22.50
2023-12-11T19:22:53.965Z,21.90
2023-12-11T19:25:22.252Z,22.90
2023-12-11T19:27:50.636Z,23.10
2023-12-11T19:30:18.826Z,23.00
2023-12-11T19:32:47.124Z,22.60
2023-12-11T19:35:16.326Z,22.00
2023-12-11T19:37:44.603Z,22.00
2023-12-11T19:40:13.284Z,22.90
2023-12-11T19:42:48.434Z,22.30
2023-12-11T19:45:18.284Z,20.50
2023-12-11T19:47:49.905Z,21.00
2023-12-11T19:50:18.269Z,22.50
2023-12-11T19:52:51.218Z,21.10
2023-12-11T19:55:20.526Z,21.60
2023-12-11T19:57:51.331Z,22.40
2023-12-11T20:00:19.888Z,21.30
2023-12-11T20:02:48.305Z,19.70
2023-12-11T20:05:17.089Z,20.80
2023-12-11T20:07:45.924Z,20.40
2023-12-11T20:10:16.444Z,21.00
2023-12-11T20:12:46.081Z,21.70
2023-12-11T20:15:14.406Z,21.70
2023-12-11T20:17:42.844Z,20.40
2023-12-11T20:20:11.801Z,20.10
2023-12-11T20:22:40.722Z,21.10
2023-12-11T20:25:10.791Z,20.50
2023-12-11T20:27:39.114Z,21.10
2023-12-11T20:30:11.399Z,20.20
2023-12-11T20:32:40.583Z,20.80
2023-12-11T20:35:09.446Z,21.20
2023-12-11T20:37:38.999Z,20.90
2023-12-11T20:40:08.377Z,20.40
2023-12-11T20:42:39.885Z,19.30
2023-12-11T20:45:09.043Z,19.80
2023-12-11T20:47:39.114Z,20.30
2023-12-11T20:50:13.766Z,20.00
2023-12-11T20:55:12.792Z,19.60
2023-12-11T20:57:42.507Z,20.10
2023-12-11T21:00:12.575Z,19.80
2023-12-11T21:02:42.563Z,20.90
2023-12-11T21:05:11.156Z,19.40
2023-12-11T21:07:42.606Z,20.00
2023-12-11T21:10:11.226Z,20.00
2023-12-11T21:12:39.661Z,20.80
2023-12-11T21:15:10.105Z,19.50
2023-12-11T21:17:41.699Z,19.80
2023-12-11T21:20:10.929Z,18.60
2023-12-11T21:22:39.241Z,19.00
2023-12-11T21:25:08.216Z,19.30
2023-12-11T21:27:36.514Z,19.20
2023-12-11T21:30:08.368Z,19.40
2023-12-11T21:32:36.626Z,19.20
2023-12-11T21:35:05.341Z,20.00
2023-12-11T21:37:34.127Z,19.30
2023-12-11T21:40:02.490Z,18.90
2023-12-11T21:42:31.297Z,20.10
2023-12-11T21:45:02.514Z,20.40
2023-12-11T21:47:31.052Z,19.40
2023-12-11T21:50:00.967Z,19.30
2023-12-11T21:52:29.437Z,19.40
2023-12-11T21:54:58.766Z,18.50
2023-12-11T21:57:27.789Z,18.50
2023-12-11T21:59:56.022Z,19.10
2023-12-11T22:02:26.014Z,17.80
2023-12-11T22:04:54.339Z,18.60
2023-12-11T22:07:22.934Z,18.50
2023-12-11T22:09:51.263Z,18.00
2023-12-11T22:12:19.757Z,18.30
2023-12-11T22:14:48.201Z,18.90
2023-12-11T22:17:16.570Z,18.90
2023-12-11T22:19:44.800Z,20.30
2023-12-11T22:22:13.333Z,20.10
2023-12-11T22:24:41.753Z,21.00
2023-12-11T22:27:10.117Z,21.30
2023-12-11T22:29:39.005Z,20.60
2023-12-11T22:32:07.488Z,19.80
2023-12-11T22:34:39.142Z,20.60
2023-12-11T22:37:07.878Z,20.30
2023-12-11T22:39:36.383Z,20.20
2023-12-11T22:42:05.986Z,20.30
2023-12-11T22:44:34.893Z,21.00
2023-12-11T22:47:03.272Z,20.40
2023-12-11T22:49:32.631Z,19.90
2023-12-11T22:52:01.613Z,19.50
2023-12-11T22:54:30.033Z,19.20
2023-12-11T22:56:59.049Z,20.00
2023-12-11T22:59:27.582Z,19.90
2023-12-11T23:01:55.836Z,20.10
2023-12-11T23:04:24.213Z,20.60
2023-12-11T23:06:52.556Z,19.30
2023-12-11T23:09:20.622Z,19.70
2023-12-11T23:11:48.888Z,20.00
2023-12-11T23:14:17.022Z,20.90
2023-12-11T23:16:46.639Z,20.80
2023-12-11T23:19:19.957Z,21.20
2023-12-11T23:21:49.668Z,20.40
2023-12-11T23:24:18.878Z,21.10
2023-12-11T23:26:47.126Z,19.00
2023-12-11T23:29:15.320Z,20.50
2023-12-11T23:31:43.508Z,20.60
2023-12-11T23:34:12.056Z,19.60
2023-12-11T23:36:40.362Z,19.10
2023-12-11T23:39:08.971Z,20.20
2023-12-11T23:41:37.966Z,19.80
2023-12-11T23:44:06.361Z,20.30
2023-12-11T23:46:34.674Z,21.00
2023-12-11T23:49:03.300Z,20.30
2023-12-11T23:51:31.851Z,20.10
2023-12-11T23:54:00.840Z,19.50
2023-12-11T23:56:29.033Z,21.00
2023-12-11T23:58:57.462Z,20.90
